createdAt,value
2022-12-15T00:02:07.874Z,17.87
2022-12-15T00:04:54.529Z,17.86
2022-12-15T00:07:41.184Z,17.89
2022-12-15T00:10:31.351Z,17.89
2022-12-15T00:13:20.456Z,17.88
2022-12-15T00:16:06.373Z,17.90
2022-12-15T00:18:52.240Z,17.91
2022-12-15T00:21:40.293Z,17.87
2022-12-15T00:24:26.548Z,17.91
2022-12-15T00:27:16.202Z,17.88
2022-12-15T00:30:02.466Z,17.87
2022-12-15T00:32:47.960Z,17.85
2022-12-15T00:35:33.738Z,17.80
2022-12-15T00:38:33.983Z,17.82
2022-12-15T00:41:01.520Z,17.84
2022-12-15T00:43:32.399Z,17.79
2022-12-15T00:46:21.182Z,17.77
2022-12-15T00:48:54.040Z,17.70
2022-12-15T00:51:21.254Z,17.64
2022-12-15T00:54:06.781Z,17.68
2022-12-15T00:56:52.671Z,17.57
2022-12-15T00:59:38.494Z,17.54
2022-12-15T01:02:29.530Z,17.58
2022-12-15T01:05:16.686Z,17.61
2022-12-15T01:08:05.900Z,17.48
2022-12-15T01:10:55.565Z,17.58
2022-12-15T01:13:41.407Z,17.58
2022-12-15T01:16:35.050Z,17.59
2022-12-15T01:19:22.119Z,17.58
2022-12-15T01:21:49.978Z,17.56
2022-12-15T01:24:21.122Z,17.54
2022-12-15T01:26:53.022Z,17.59
2022-12-15T01:29:22.727Z,17.57
2022-12-15T01:31:50.749Z,17.61
2022-12-15T01:34:25.095Z,17.58
2022-12-15T01:36:52.173Z,17.56
2022-12-15T01:39:24.912Z,17.50
2022-12-15T01:41:52.341Z,17.48
2022-12-15T01:44:25.688Z,17.49
2022-12-15T01:46:57.372Z,17.41
2022-12-15T01:49:29.015Z,17.41
2022-12-15T01:51:59.357Z,17.41
2022-12-15T01:54:32.350Z,17.40
2022-12-15T01:57:11.170Z,17.41
2022-12-15T02:02:43.196Z,17.39
2022-12-15T02:05:15.881Z,17.42
2022-12-15T02:07:43.059Z,17.40
2022-12-15T02:10:11.745Z,17.35
2022-12-15T02:12:40.868Z,17.31
2022-12-15T02:15:14.856Z,17.39
2022-12-15T02:18:00.876Z,17.32
2022-12-15T02:21:06.112Z,17.25
2022-12-15T02:24:05.506Z,17.28
2022-12-15T02:26:36.056Z,17.21
2022-12-15T02:29:25.610Z,17.25
2022-12-15T02:31:58.286Z,17.14
2022-12-15T02:34:30.308Z,17.27
2022-12-15T02:37:00.159Z,17.27
2022-12-15T02:39:38.933Z,17.30
2022-12-15T02:42:06.427Z,17.33
2022-12-15T02:44:38.600Z,17.36
2022-12-15T02:47:46.598Z,17.38
2022-12-15T02:50:23.601Z,17.27
2022-12-15T02:53:00.174Z,17.33
2022-12-15T02:55:38.384Z,17.39
2022-12-15T02:58:18.700Z,17.43
2022-12-15T03:00:51.098Z,17.47
2022-12-15T03:03:20.781Z,17.52
2022-12-15T03:05:49.913Z,17.50
2022-12-15T03:08:17.385Z,17.49
2022-12-15T03:10:44.671Z,17.48
2022-12-15T03:13:11.722Z,17.51
2022-12-15T03:15:39.077Z,17.58
2022-12-15T03:18:06.224Z,17.56
2022-12-15T03:20:33.688Z,17.59
2022-12-15T03:23:02.369Z,17.64
2022-12-15T03:25:29.738Z,17.61
2022-12-15T03:27:58.109Z,17.65
2022-12-15T03:30:25.342Z,17.66
2022-12-15T03:32:52.637Z,17.67
2022-12-15T03:35:19.563Z,17.73
2022-12-15T03:37:46.760Z,17.70
2022-12-15T03:40:17.034Z,17.73
2022-12-15T03:42:51.073Z,17.78
2022-12-15T03:45:25.960Z,17.69
2022-12-15T03:47:53.517Z,17.67
2022-12-15T03:50:22.226Z,17.66
2022-12-15T03:52:53.730Z,17.72
2022-12-15T03:55:21.559Z,17.69
2022-12-15T03:57:48.690Z,17.67
2022-12-15T04:00:17.657Z,17.61
2022-12-15T04:02:56.390Z,17.57
2022-12-15T04:05:36.318Z,17.59
2022-12-15T04:08:11.791Z,17.55
2022-12-15T04:10:39.239Z,17.56
2022-12-15T04:13:15.123Z,17.56
2022-12-15T04:15:50.708Z,17.52
2022-12-15T04:18:23.077Z,17.52
2022-12-15T04:20:54.394Z,17.52
2022-12-15T04:23:28.387Z,17.50
2022-12-15T04:26:25.412Z,17.49
2022-12-15T04:29:11.507Z,17.52
2022-12-15T04:32:05.094Z,17.50
2022-12-15T04:34:57.539Z,17.52
2022-12-15T04:37:47.431Z,17.50
2022-12-15T04:40:34.735Z,17.41
2022-12-15T04:43:24.162Z,17.40
2022-12-15T04:46:11.318Z,17.41
2022-12-15T04:49:02.451Z,17.40
2022-12-15T04:51:55.008Z,17.39
2022-12-15T04:57:47.340Z,17.33
2022-12-15T05:00:44.765Z,17.44
2022-12-15T05:03:35.581Z,17.46
2022-12-15T05:06:29.131Z,17.43
2022-12-15T05:09:15.798Z,17.46
2022-12-15T05:12:07.470Z,17.36
2022-12-15T05:14:56.878Z,17.34
2022-12-15T05:17:45.531Z,17.36
2022-12-15T05:20:34.099Z,17.43
2022-12-15T05:23:25.804Z,17.46
2022-12-15T05:26:18.882Z,17.45
2022-12-15T05:29:06.983Z,17.46
2022-12-15T05:31:56.362Z,17.50
2022-12-15T05:34:27.163Z,17.45
2022-12-15T05:37:08.408Z,17.38
2022-12-15T05:39:42.590Z,17.36
2022-12-15T05:42:38.241Z,17.36
2022-12-15T05:45:16.975Z,17.41
2022-12-15T05:47:50.865Z,17.41
2022-12-15T05:50:22.748Z,17.36
2022-12-15T05:52:50.815Z,17.47
2022-12-15T05:55:22.538Z,17.51
2022-12-15T05:57:53.912Z,17.52
2022-12-15T06:00:27.497Z,17.47
2022-12-15T06:03:01.212Z,17.48
2022-12-15T06:05:37.046Z,17.49
2022-12-15T06:08:09.510Z,17.51
2022-12-15T06:10:48.702Z,17.48
2022-12-15T06:13:43.568Z,17.54
2022-12-15T06:16:13.982Z,17.56
2022-12-15T06:18:49.933Z,17.55
2022-12-15T06:21:20.833Z,17.51
2022-12-15T06:23:53.211Z,17.48
2022-12-15T06:26:22.685Z,17.55
2022-12-15T06:28:56.688Z,17.43
2022-12-15T06:31:30.045Z,17.29
2022-12-15T06:34:02.108Z,17.19
2022-12-15T06:36:36.632Z,16.76
2022-12-15T06:39:12.088Z,16.88
2022-12-15T06:41:41.736Z,16.54
2022-12-15T06:44:19.359Z,16.46
2022-12-15T06:46:53.796Z,16.34
2022-12-15T06:49:36.135Z,16.16
2022-12-15T06:52:15.706Z,16.32
2022-12-15T06:54:45.465Z,16.33
2022-12-15T06:57:17.909Z,16.24
2022-12-15T06:59:50.296Z,16.30
2022-12-15T07:02:28.517Z,16.23
2022-12-15T07:04:56.187Z,16.38
2022-12-15T07:07:26.123Z,16.48
2022-12-15T07:09:53.094Z,16.62
2022-12-15T07:12:21.397Z,16.69
2022-12-15T07:14:53.532Z,16.82
2022-12-15T07:17:27.404Z,16.88
2022-12-15T07:19:55.149Z,16.94
2022-12-15T07:22:22.922Z,17.01
2022-12-15T07:24:50.162Z,17.00
2022-12-15T07:27:18.349Z,17.08
2022-12-15T07:29:45.383Z,17.07
2022-12-15T07:32:15.403Z,17.11
2022-12-15T07:34:42.763Z,17.08
2022-12-15T07:37:12.154Z,17.20
2022-12-15T07:39:42.117Z,17.22
2022-12-15T07:42:09.328Z,17.23
2022-12-15T07:44:36.378Z,17.22
2022-12-15T07:47:07.912Z,17.22
2022-12-15T07:49:34.893Z,17.21
2022-12-15T07:52:04.684Z,17.21
2022-12-15T07:54:31.792Z,17.01
2022-12-15T07:57:00.277Z,17.18
2022-12-15T07:59:27.779Z,16.88
2022-12-15T08:02:01.115Z,17.02
2022-12-15T08:04:31.224Z,17.14
2022-12-15T08:07:01.751Z,17.25
2022-12-15T08:09:28.776Z,17.24
2022-12-15T08:11:57.085Z,17.30
2022-12-15T08:14:24.954Z,17.31
2022-12-15T08:16:52.223Z,17.45
2022-12-15T08:19:22.291Z,17.45
2022-12-15T08:21:49.325Z,17.55
2022-12-15T08:24:17.768Z,17.43
2022-12-15T08:26:50.103Z,17.50
2022-12-15T08:29:49.657Z,17.50
2022-12-15T08:32:05.850Z,17.57
2022-12-15T08:34:37.768Z,17.55
2022-12-15T08:37:04.875Z,17.45
2022-12-15T08:39:35.196Z,17.32
2022-12-15T08:42:05.744Z,17.29
2022-12-15T08:44:36.480Z,17.35
2022-12-15T08:47:06.098Z,17.42
2022-12-15T08:49:36.463Z,17.53
2022-12-15T08:52:07.037Z,17.65
2022-12-15T08:54:39.100Z,17.67
2022-12-15T08:57:11.165Z,17.76
2022-12-15T08:59:39.840Z,17.75
2022-12-15T09:02:10.475Z,17.57
2022-12-15T09:04:40.633Z,17.50
2022-12-15T09:07:08.200Z,17.79
2022-12-15T09:09:40.694Z,18.16
2022-12-15T09:12:10.927Z,18.37
2022-12-15T09:14:42.044Z,18.66
2022-12-15T09:17:12.989Z,18.90
2022-12-15T09:19:48.697Z,19.26
2022-12-15T09:22:19.015Z,19.63
2022-12-15T09:25:01.828Z,20.07
2022-12-15T09:27:36.264Z,20.43
2022-12-15T09:30:07.450Z,20.84
2022-12-15T09:32:48.111Z,21.34
2022-12-15T09:35:17.975Z,21.73
2022-12-15T09:37:51.977Z,22.03
2022-12-15T09:40:20.421Z,22.42
2022-12-15T09:43:32.991Z,22.61
2022-12-15T09:46:00.629Z,22.85
2022-12-15T09:48:34.713Z,23.16
2022-12-15T09:51:04.854Z,23.08
2022-12-15T09:53:57.593Z,23.70
2022-12-15T09:56:23.041Z,24.12
2022-12-15T09:58:55.059Z,24.33
2022-12-15T10:01:40.137Z,23.96
2022-12-15T10:04:34.419Z,24.70
2022-12-15T10:07:10.031Z,24.98
2022-12-15T10:09:39.105Z,25.33
2022-12-15T10:12:34.708Z,25.58
2022-12-15T10:15:20.694Z,26.05
2022-12-15T10:17:53.904Z,23.79
2022-12-15T10:20:24.524Z,24.60
2022-12-15T10:22:51.826Z,24.69
2022-12-15T10:25:30.780Z,25.41
2022-12-15T10:28:23.366Z,25.45
2022-12-15T10:30:51.244Z,26.06
2022-12-15T10:33:30.828Z,26.13
2022-12-15T10:36:00.312Z,26.28
2022-12-15T10:38:39.971Z,25.61
2022-12-15T10:41:10.058Z,25.54
2022-12-15T10:43:44.247Z,25.26
2022-12-15T10:46:19.095Z,26.06
2022-12-15T10:49:02.742Z,26.39
2022-12-15T10:52:02.775Z,25.94
2022-12-15T10:54:37.493Z,25.73
2022-12-15T10:57:19.128Z,26.85
2022-12-15T10:59:46.554Z,27.23
2022-12-15T11:02:30.742Z,25.93
2022-12-15T11:05:04.363Z,25.03
2022-12-15T11:07:42.174Z,25.83
2022-12-15T11:13:27.351Z,25.08
2022-12-15T11:19:02.681Z,23.38
2022-12-15T11:21:37.970Z,23.13
2022-12-15T11:24:09.781Z,23.97
2022-12-15T11:26:43.633Z,24.53
2022-12-15T11:29:19.388Z,23.68
2022-12-15T11:31:58.922Z,24.15
2022-12-15T11:34:39.120Z,25.76
2022-12-15T11:37:34.044Z,26.28
2022-12-15T11:43:30.059Z,27.74
2022-12-15T11:46:28.607Z,28.48
2022-12-15T11:49:01.721Z,28.14
2022-12-15T11:51:54.675Z,29.82
2022-12-15T11:54:30.510Z,30.78
2022-12-15T11:57:24.168Z,31.14
2022-12-15T12:00:07.461Z,31.79
2022-12-15T12:02:48.420Z,31.86
2022-12-15T12:05:19.366Z,31.49
2022-12-15T12:08:13.708Z,31.83
2022-12-15T12:11:03.254Z,32.32
2022-12-15T12:13:56.602Z,32.77
2022-12-15T12:16:40.445Z,33.48
2022-12-15T12:19:19.626Z,33.87
2022-12-15T12:21:51.486Z,33.64
2022-12-15T12:24:28.391Z,31.12
2022-12-15T12:26:59.179Z,31.90
2022-12-15T12:29:48.658Z,31.66
2022-12-15T12:32:33.987Z,29.83
2022-12-15T12:35:30.345Z,30.43
2022-12-15T12:38:04.462Z,32.14
2022-12-15T12:40:43.670Z,31.43
2022-12-15T12:43:28.728Z,32.06
2022-12-15T12:46:10.472Z,33.07
2022-12-15T12:48:52.021Z,33.18
2022-12-15T12:51:21.221Z,33.19
2022-12-15T12:53:53.224Z,33.58
2022-12-15T12:56:35.446Z,32.81
2022-12-15T12:59:11.894Z,30.84
2022-12-15T13:01:40.712Z,30.75
2022-12-15T13:04:13.183Z,31.08
2022-12-15T13:06:40.603Z,31.29
2022-12-15T13:09:21.905Z,31.84
2022-12-15T13:11:49.208Z,30.50
2022-12-15T13:17:28.242Z,30.09
2022-12-15T13:20:06.675Z,29.78
2022-12-15T13:22:44.988Z,29.27
2022-12-15T13:25:40.830Z,28.98
2022-12-15T13:28:32.261Z,27.96
2022-12-15T13:31:23.769Z,28.11
2022-12-15T13:33:54.009Z,27.43
2022-12-15T13:36:39.988Z,26.80
2022-12-15T13:39:15.757Z,26.44
2022-12-15T13:44:49.599Z,26.21
2022-12-15T13:47:22.872Z,26.15
2022-12-15T13:50:09.985Z,26.43
2022-12-15T13:53:17.819Z,27.43
2022-12-15T13:55:39.607Z,27.97
2022-12-15T13:58:10.379Z,28.55
2022-12-15T14:00:48.768Z,28.77
2022-12-15T14:03:19.045Z,29.02
2022-12-15T14:05:54.016Z,28.98
2022-12-15T14:08:26.886Z,29.17
2022-12-15T14:11:22.326Z,29.65
2022-12-15T14:14:01.271Z,28.16
2022-12-15T14:16:36.990Z,28.74
2022-12-15T14:19:15.723Z,28.28
2022-12-15T14:21:53.142Z,28.43
2022-12-15T14:24:40.644Z,28.59
2022-12-15T14:27:21.492Z,28.60
2022-12-15T14:29:56.272Z,28.75
2022-12-15T14:32:26.479Z,28.25
2022-12-15T14:34:53.710Z,28.25
2022-12-15T14:37:24.776Z,28.00
2022-12-15T14:40:04.307Z,27.32
2022-12-15T14:42:31.478Z,26.79
2022-12-15T14:45:09.650Z,27.11
2022-12-15T14:47:37.392Z,26.85
2022-12-15T14:50:10.222Z,26.50
2022-12-15T14:52:40.121Z,26.13
2022-12-15T14:55:25.507Z,25.44
2022-12-15T14:57:57.641Z,25.41
2022-12-15T15:00:35.053Z,25.21
2022-12-15T15:03:10.317Z,29.65
2022-12-15T15:03:18.726Z,24.32
2022-12-15T15:06:20.406Z,24.38
2022-12-15T15:08:51.824Z,23.85
2022-12-15T15:11:30.835Z,24.04
2022-12-15T15:14:05.452Z,24.23
2022-12-15T15:16:41.576Z,24.50
2022-12-15T15:19:20.083Z,23.98
2022-12-15T15:21:52.732Z,24.25
2022-12-15T15:24:30.229Z,23.35
2022-12-15T15:27:20.599Z,22.70
2022-12-15T15:29:53.076Z,23.11
2022-12-15T15:32:25.042Z,22.77
2022-12-15T15:34:52.515Z,22.35
2022-12-15T15:37:21.905Z,22.80
2022-12-15T15:39:58.369Z,22.58
2022-12-15T15:42:32.516Z,22.55
2022-12-15T15:45:00.252Z,22.45
2022-12-15T15:47:31.878Z,22.07
2022-12-15T15:50:01.929Z,22.12
2022-12-15T15:52:37.448Z,21.92
2022-12-15T15:55:10.666Z,22.02
2022-12-15T15:57:43.520Z,21.96
2022-12-15T16:00:19.766Z,22.06
2022-12-15T16:02:50.208Z,22.00
2022-12-15T16:05:24.180Z,22.01
2022-12-15T16:07:53.798Z,22.12
2022-12-15T16:10:23.905Z,21.93
2022-12-15T16:12:58.850Z,21.80
2022-12-15T16:15:37.248Z,21.77
2022-12-15T16:18:04.516Z,21.91
2022-12-15T16:20:40.565Z,21.98
2022-12-15T16:23:12.016Z,21.79
2022-12-15T16:25:50.127Z,21.87
2022-12-15T16:28:28.860Z,21.72
2022-12-15T16:31:03.318Z,21.84
2022-12-15T16:33:36.058Z,21.88
2022-12-15T16:36:09.175Z,21.69
2022-12-15T16:38:36.870Z,21.79
2022-12-15T16:41:16.154Z,21.68
2022-12-15T16:43:48.273Z,21.66
2022-12-15T16:46:18.585Z,21.56
2022-12-15T16:48:45.651Z,21.55
2022-12-15T16:51:25.022Z,21.57
2022-12-15T16:53:55.004Z,21.41
2022-12-15T16:56:23.077Z,21.45
2022-12-15T16:58:57.401Z,21.29
2022-12-15T17:01:40.240Z,21.08
2022-12-15T17:04:07.689Z,21.11
2022-12-15T17:06:37.580Z,21.01
2022-12-15T17:09:07.603Z,21.03
2022-12-15T17:11:40.975Z,20.71
2022-12-15T17:14:11.704Z,20.68
2022-12-15T17:16:44.205Z,20.59
2022-12-15T17:19:14.926Z,20.76
2022-12-15T17:21:52.342Z,20.75
2022-12-15T17:24:27.868Z,20.62
2022-12-15T17:26:56.353Z,20.50
2022-12-15T17:29:25.576Z,20.64
2022-12-15T17:31:52.675Z,20.49
2022-12-15T17:34:28.163Z,20.59
2022-12-15T17:36:55.827Z,20.68
2022-12-15T17:39:23.158Z,20.49
2022-12-15T17:42:01.204Z,20.48
2022-12-15T17:44:36.189Z,20.35
2022-12-15T17:47:07.920Z,20.39
2022-12-15T17:49:39.309Z,20.44
2022-12-15T17:52:12.641Z,20.48
2022-12-15T17:54:39.874Z,20.45
2022-12-15T17:57:15.097Z,20.43
2022-12-15T17:59:46.922Z,20.48
2022-12-15T18:02:19.830Z,20.46
2022-12-15T18:04:48.354Z,20.37
2022-12-15T18:07:23.057Z,20.27
2022-12-15T18:09:51.276Z,20.37
2022-12-15T18:12:27.209Z,20.48
2022-12-15T18:14:57.600Z,20.36
2022-12-15T18:17:24.831Z,20.43
2022-12-15T18:19:54.944Z,20.49
2022-12-15T18:22:26.947Z,20.53
2022-12-15T18:24:58.027Z,20.60
2022-12-15T18:27:27.827Z,20.63
2022-12-15T18:29:58.242Z,20.63
2022-12-15T18:32:26.469Z,20.54
2022-12-15T18:34:56.168Z,20.54
2022-12-15T18:37:29.755Z,20.54
2022-12-15T18:40:02.579Z,20.55
2022-12-15T18:42:34.959Z,20.58
2022-12-15T18:45:05.214Z,20.50
2022-12-15T18:47:32.646Z,20.53
2022-12-15T18:50:12.037Z,20.46
2022-12-15T18:52:41.546Z,20.45
2022-12-15T18:55:22.727Z,20.43
2022-12-15T18:57:51.009Z,20.37
2022-12-15T19:00:19.461Z,20.35
2022-12-15T19:02:49.925Z,20.28
2022-12-15T19:05:31.469Z,20.28
2022-12-15T19:08:01.853Z,20.06
2022-12-15T19:10:34.611Z,20.18
2022-12-15T19:13:02.459Z,20.08
2022-12-15T19:15:29.801Z,20.08
2022-12-15T19:18:19.785Z,20.15
2022-12-15T19:21:05.937Z,20.19
2022-12-15T19:23:35.859Z,20.07
2022-12-15T19:26:06.476Z,20.07
2022-12-15T19:28:33.544Z,20.10
2022-12-15T19:31:02.018Z,19.99
2022-12-15T19:33:32.621Z,20.07
2022-12-15T19:36:00.405Z,20.08
2022-12-15T19:38:32.284Z,19.93
2022-12-15T19:41:04.720Z,20.01
2022-12-15T19:43:40.984Z,19.97
2022-12-15T19:46:34.708Z,20.03
2022-12-15T19:49:05.055Z,20.07
2022-12-15T19:54:54.456Z,20.02
2022-12-15T19:57:25.433Z,19.87
2022-12-15T20:00:04.167Z,19.83
2022-12-15T20:02:39.580Z,19.82
2022-12-15T20:05:13.581Z,19.74
2022-12-15T20:07:48.424Z,19.71
2022-12-15T20:10:31.916Z,19.69
2022-12-15T20:13:06.442Z,19.57
2022-12-15T20:15:38.305Z,19.60
2022-12-15T20:18:08.243Z,19.57
2022-12-15T20:20:38.404Z,19.55
2022-12-15T20:23:35.298Z,19.53
2022-12-15T20:26:03.662Z,19.50
2022-12-15T20:28:32.155Z,19.52
2022-12-15T20:31:04.115Z,19.50
2022-12-15T20:33:40.807Z,19.48
2022-12-15T20:36:17.248Z,19.48
2022-12-15T20:38:52.823Z,19.42
2022-12-15T20:41:25.519Z,19.43
2022-12-15T20:44:00.088Z,19.39
2022-12-15T20:46:56.275Z,19.38
2022-12-15T20:49:28.553Z,19.35
2022-12-15T20:52:06.932Z,19.32
2022-12-15T20:54:39.922Z,19.28
2022-12-15T20:57:09.114Z,19.30
2022-12-15T20:59:42.557Z,19.34
2022-12-15T21:02:27.242Z,19.20
2022-12-15T21:05:04.708Z,19.23
2022-12-15T21:07:35.206Z,19.12
2022-12-15T21:10:05.882Z,18.97
2022-12-15T21:12:33.939Z,19.07
2022-12-15T21:15:05.204Z,18.93
2022-12-15T21:17:33.618Z,19.03
2022-12-15T21:20:17.813Z,18.97
2022-12-15T21:22:45.404Z,18.93
2022-12-15T21:25:32.193Z,19.02
2022-12-15T21:28:09.790Z,19.01
2022-12-15T21:30:39.809Z,18.82
2022-12-15T21:33:12.138Z,18.83
2022-12-15T21:38:37.745Z,18.95
2022-12-15T21:41:13.164Z,18.97
2022-12-15T21:43:47.391Z,19.01
2022-12-15T21:46:27.690Z,19.04
2022-12-15T21:49:17.727Z,19.04
2022-12-15T21:51:56.232Z,18.93
2022-12-15T21:54:31.133Z,18.96
2022-12-15T21:57:07.645Z,18.92
2022-12-15T21:59:40.423Z,18.83
2022-12-15T22:02:28.526Z,18.77
2022-12-15T22:05:24.803Z,18.72
2022-12-15T22:08:00.650Z,18.71
2022-12-15T22:13:14.655Z,18.55
2022-12-15T22:15:52.611Z,18.56
2022-12-15T22:18:26.308Z,18.48
2022-12-15T22:20:56.772Z,18.48
2022-12-15T22:23:30.935Z,18.51
2022-12-15T22:26:06.513Z,18.48
2022-12-15T22:28:34.946Z,18.45
2022-12-15T22:31:04.850Z,18.43
2022-12-15T22:33:37.719Z,18.46
2022-12-15T22:36:13.725Z,18.40
2022-12-15T22:38:46.013Z,18.41
2022-12-15T22:41:25.780Z,18.43
2022-12-15T22:43:59.149Z,18.34
2022-12-15T22:46:40.204Z,18.38
2022-12-15T22:49:16.528Z,18.24
2022-12-15T22:51:56.963Z,18.36
2022-12-15T22:54:26.694Z,18.27
2022-12-15T22:57:02.070Z,18.25
2022-12-15T22:59:41.432Z,18.25
2022-12-15T23:02:12.395Z,18.27
2022-12-15T23:04:43.461Z,18.24
2022-12-15T23:07:11.781Z,18.12
2022-12-15T23:09:39.622Z,18.20
2022-12-15T23:12:07.459Z,18.20
2022-12-15T23:14:55.154Z,18.02
2022-12-15T23:17:23.935Z,18.06
2022-12-15T23:19:59.279Z,18.05
2022-12-15T23:22:29.341Z,17.89
2022-12-15T23:24:57.925Z,17.93
2022-12-15T23:27:29.850Z,17.94
2022-12-15T23:29:57.934Z,18.03
2022-12-15T23:32:28.551Z,17.88
2022-12-15T23:34:57.263Z,17.90
2022-12-15T23:37:24.745Z,17.88
2022-12-15T23:39:54.023Z,17.85
2022-12-15T23:42:27.952Z,17.79
2022-12-15T23:44:56.801Z,17.82
2022-12-15T23:47:25.892Z,17.86
2022-12-15T23:49:59.320Z,17.90
2022-12-15T23:52:29.415Z,17.91
2022-12-15T23:54:57.308Z,17.97
2022-12-15T23:57:27.456Z,17.95
